createdAt,value
2023-03-07T00:00:26.461Z,30.82
2023-03-07T00:01:26.305Z,30.38
2023-03-07T00:02:26.197Z,29.89
2023-03-07T00:03:26.088Z,30.35
2023-03-07T00:04:25.905Z,28.57
2023-03-07T00:05:25.789Z,30.72
2023-03-07T00:06:25.663Z,30.56
2023-03-07T00:07:25.541Z,29.83
2023-03-07T00:08:25.430Z,26.00
2023-03-07T00:09:25.273Z,28.85
2023-03-07T00:10:25.162Z,32.01
2023-03-07T00:11:25.025Z,28.59
2023-03-07T00:12:24.892Z,28.77
2023-03-07T00:13:24.799Z,29.06
2023-03-07T00:14:24.654Z,27.25
2023-03-07T00:15:24.522Z,29.54
2023-03-07T00:16:24.434Z,30.00
2023-03-07T00:17:24.271Z,30.13
2023-03-07T00:18:24.135Z,30.66
2023-03-07T00:19:24.013Z,30.78
2023-03-07T00:20:23.881Z,31.35
2023-03-07T00:21:23.750Z,27.99
2023-03-07T00:22:23.614Z,28.93
2023-03-07T00:23:23.486Z,28.01
2023-03-07T00:24:23.352Z,28.91
2023-03-07T00:25:23.227Z,30.42
2023-03-07T00:26:23.090Z,30.60
2023-03-07T00:27:22.972Z,30.98
2023-03-07T00:28:22.836Z,30.18
2023-03-07T00:29:22.729Z,30.01
2023-03-07T00:30:22.567Z,33.58
2023-03-07T00:31:22.492Z,31.13
2023-03-07T00:32:22.389Z,30.18
2023-03-07T00:33:22.196Z,31.06
2023-03-07T00:34:22.064Z,32.13
2023-03-07T00:35:21.927Z,31.21
2023-03-07T00:36:21.788Z,30.56
2023-03-07T00:37:21.661Z,32.14
2023-03-07T00:38:21.542Z,30.36
2023-03-07T00:39:21.435Z,27.03
2023-03-07T00:40:21.287Z,28.69
2023-03-07T00:41:21.148Z,30.73
2023-03-07T00:42:21.022Z,30.03
2023-03-07T00:43:20.911Z,31.30
2023-03-07T00:44:20.788Z,31.54
2023-03-07T00:45:20.651Z,29.35
2023-03-07T00:46:20.492Z,29.25
2023-03-07T00:47:20.372Z,30.26
2023-03-07T00:48:22.277Z,30.54
2023-03-07T00:49:20.127Z,34.49
2023-03-07T00:50:20.025Z,32.38
2023-03-07T00:51:19.861Z,31.23
2023-03-07T00:52:19.736Z,31.46
2023-03-07T00:53:19.620Z,33.32
2023-03-07T00:54:19.490Z,31.90
2023-03-07T00:55:19.352Z,27.50
2023-03-07T00:56:19.232Z,30.32
2023-03-07T00:57:19.103Z,32.15
2023-03-07T00:58:18.982Z,30.41
2023-03-07T00:59:18.861Z,29.25
2023-03-07T01:00:18.734Z,31.38
2023-03-07T01:01:18.658Z,30.25
2023-03-07T01:02:18.467Z,30.84
2023-03-07T01:03:18.349Z,29.31
2023-03-07T01:04:18.287Z,30.50
2023-03-07T01:05:18.097Z,28.39
2023-03-07T01:06:17.971Z,27.98
2023-03-07T01:07:17.873Z,31.25
2023-03-07T01:08:17.720Z,27.64
2023-03-07T01:09:17.616Z,28.70
2023-03-07T01:10:17.478Z,29.10
2023-03-07T01:11:17.339Z,29.11
2023-03-07T01:12:17.207Z,29.15
2023-03-07T01:13:17.102Z,29.67
2023-03-07T01:14:16.946Z,30.58
2023-03-07T01:15:16.859Z,29.51
2023-03-07T01:16:16.711Z,32.81
2023-03-07T01:17:16.576Z,34.01
2023-03-07T01:18:16.466Z,28.49
2023-03-07T01:19:16.855Z,28.72
2023-03-07T01:20:16.202Z,31.87
2023-03-07T01:21:16.065Z,30.96
2023-03-07T01:22:15.935Z,31.01
2023-03-07T01:23:15.800Z,32.77
2023-03-07T01:24:15.732Z,30.31
2023-03-07T01:25:15.557Z,29.98
2023-03-07T01:26:15.434Z,28.15
2023-03-07T01:27:15.291Z,29.97
2023-03-07T01:28:15.162Z,30.97
2023-03-07T01:29:15.023Z,26.57
2023-03-07T01:30:14.894Z,33.41
2023-03-07T01:31:14.774Z,29.27
2023-03-07T01:32:14.765Z,30.32
2023-03-07T01:33:14.515Z,28.44
2023-03-07T01:34:14.399Z,31.25
2023-03-07T01:35:14.274Z,30.91
2023-03-07T01:36:14.212Z,30.54
2023-03-07T01:37:14.002Z,31.89
2023-03-07T01:38:13.874Z,29.55
2023-03-07T01:39:13.758Z,31.46
2023-03-07T01:40:13.625Z,28.52
2023-03-07T01:41:13.500Z,29.72
2023-03-07T01:42:13.364Z,29.19
2023-03-07T01:43:13.237Z,32.48
2023-03-07T01:44:13.127Z,28.63
2023-03-07T01:45:13.001Z,27.07
2023-03-07T01:46:12.900Z,29.29
2023-03-07T01:47:12.728Z,32.03
2023-03-07T01:48:12.592Z,30.77
2023-03-07T01:49:12.486Z,30.28
2023-03-07T01:50:12.383Z,28.40
2023-03-07T01:51:12.228Z,33.45
2023-03-07T01:52:12.093Z,30.20
2023-03-07T01:53:11.960Z,27.40
2023-03-07T01:54:11.836Z,29.87
2023-03-07T01:55:11.716Z,29.59
2023-03-07T01:56:11.686Z,29.36
2023-03-07T01:57:11.457Z,27.68
2023-03-07T01:58:11.334Z,27.99
2023-03-07T01:59:11.207Z,28.72
2023-03-07T02:00:11.108Z,28.99
2023-03-07T02:01:10.977Z,27.81
2023-03-07T02:02:10.812Z,30.42
2023-03-07T02:03:10.703Z,30.58
2023-03-07T02:04:10.573Z,28.92
2023-03-07T02:05:10.429Z,30.76
2023-03-07T02:06:10.303Z,27.83
2023-03-07T02:07:10.182Z,30.63
2023-03-07T02:08:10.040Z,29.90
2023-03-07T02:09:09.930Z,27.95
2023-03-07T02:10:09.782Z,32.46
2023-03-07T02:11:09.657Z,30.38
2023-03-07T02:12:09.521Z,30.38
2023-03-07T02:13:09.389Z,29.89
2023-03-07T02:14:09.253Z,28.60
2023-03-07T02:15:09.132Z,29.62
2023-03-07T02:16:09.039Z,28.70
2023-03-07T02:17:08.858Z,28.88
2023-03-07T02:18:08.736Z,29.23
2023-03-07T02:19:08.601Z,29.94
2023-03-07T02:20:08.467Z,29.90
2023-03-07T02:21:08.332Z,32.68
2023-03-07T02:22:08.195Z,31.60
2023-03-07T02:23:08.069Z,30.48
2023-03-07T02:24:07.950Z,27.70
2023-03-07T02:25:07.817Z,31.58
2023-03-07T02:26:07.693Z,30.78
2023-03-07T02:27:07.562Z,28.88
2023-03-07T02:28:07.427Z,34.99
2023-03-07T02:29:07.295Z,29.84
2023-03-07T02:30:07.159Z,32.33
2023-03-07T02:31:07.116Z,32.06
2023-03-07T02:32:06.965Z,25.49
2023-03-07T02:33:06.769Z,31.62
2023-03-07T02:34:06.631Z,30.86
2023-03-07T02:35:06.497Z,31.10
2023-03-07T02:36:06.370Z,33.25
2023-03-07T02:37:06.234Z,30.66
2023-03-07T02:38:06.101Z,31.33
2023-03-07T02:39:05.961Z,32.95
2023-03-07T02:40:05.843Z,31.74
2023-03-07T02:41:05.735Z,30.65
2023-03-07T02:42:05.574Z,32.07
2023-03-07T02:43:05.426Z,30.00
2023-03-07T02:44:05.386Z,33.22
2023-03-07T02:45:05.256Z,26.89
2023-03-07T02:46:05.086Z,32.91
2023-03-07T02:47:04.899Z,33.80
2023-03-07T02:48:04.764Z,34.38
2023-03-07T02:49:04.627Z,31.38
2023-03-07T02:50:04.497Z,31.61
2023-03-07T02:51:04.412Z,31.86
2023-03-07T02:52:04.235Z,33.18
2023-03-07T02:53:04.093Z,33.38
2023-03-07T02:54:03.970Z,33.28
2023-03-07T02:55:03.834Z,32.68
2023-03-07T02:56:03.704Z,34.66
2023-03-07T02:57:03.569Z,34.82
2023-03-07T02:58:03.432Z,31.05
2023-03-07T02:59:03.399Z,27.90
2023-03-07T03:00:03.178Z,33.33
2023-03-07T03:53:56.272Z,26.88
2023-03-07T03:54:56.116Z,25.92
2023-03-07T03:55:55.987Z,33.57
2023-03-07T03:56:55.878Z,33.59
2023-03-07T03:57:55.739Z,28.67
2023-03-07T03:58:55.601Z,27.32
2023-03-07T03:59:55.483Z,25.34
2023-03-07T04:00:55.352Z,33.95
2023-03-07T04:01:55.428Z,36.08
2023-03-07T04:02:55.181Z,30.30
2023-03-07T04:03:54.979Z,29.11
2023-03-07T04:04:54.851Z,25.00
2023-03-07T04:05:54.723Z,31.47
2023-03-07T04:06:54.592Z,32.86
2023-03-07T04:07:54.480Z,33.41
2023-03-07T04:08:54.346Z,28.54
2023-03-07T04:09:54.224Z,28.90
2023-03-07T04:10:54.101Z,31.43
2023-03-07T04:11:53.979Z,33.74
2023-03-07T04:12:53.864Z,31.94
2023-03-07T04:13:53.741Z,33.97
2023-03-07T04:14:53.605Z,25.60
2023-03-07T04:15:53.477Z,29.17
2023-03-07T04:16:53.369Z,29.44
2023-03-07T04:17:53.237Z,30.02
2023-03-07T05:02:47.582Z,28.78
2023-03-07T05:03:47.468Z,27.26
2023-03-07T05:04:47.323Z,29.22
2023-03-07T05:05:47.199Z,31.40
2023-03-07T05:06:47.064Z,31.58
2023-03-07T05:07:46.939Z,29.36
2023-03-07T05:08:46.817Z,28.62
2023-03-07T05:09:46.689Z,28.28
2023-03-07T05:10:46.556Z,28.34
2023-03-07T05:11:46.442Z,32.50
2023-03-07T05:12:46.302Z,30.37
2023-03-07T05:13:46.194Z,26.14
2023-03-07T05:14:46.077Z,26.56
2023-03-07T05:15:45.951Z,27.64
2023-03-07T05:16:45.794Z,32.16
2023-03-07T05:17:45.660Z,30.67
2023-03-07T05:18:45.550Z,31.41
2023-03-07T05:19:45.431Z,25.00
2023-03-07T05:20:45.295Z,29.63
2023-03-07T05:21:45.157Z,31.69
2023-03-07T05:22:45.080Z,33.20
2023-03-07T05:23:44.919Z,31.05
2023-03-07T05:24:44.791Z,27.69
2023-03-07T05:25:44.648Z,29.76
2023-03-07T05:26:44.525Z,26.53
2023-03-07T05:27:44.383Z,29.99
2023-03-07T05:28:44.285Z,31.42
2023-03-07T05:29:44.138Z,26.61
2023-03-07T05:30:44.025Z,26.91
2023-03-07T05:31:43.870Z,30.62
2023-03-07T05:32:43.752Z,31.04
2023-03-07T05:33:43.634Z,30.80
2023-03-07T05:34:43.502Z,34.12
2023-03-07T05:35:43.421Z,28.53
2023-03-07T05:36:43.247Z,30.43
2023-03-07T06:26:36.943Z,29.03
2023-03-07T06:27:36.804Z,27.24
2023-03-07T06:28:36.681Z,29.78
2023-03-07T06:29:36.578Z,29.92
2023-03-07T06:30:36.438Z,30.38
2023-03-07T06:31:36.405Z,25.41
2023-03-07T06:32:36.225Z,30.48
2023-03-07T06:34:35.934Z,28.78
2023-03-07T06:35:35.806Z,28.18
2023-03-07T06:36:35.657Z,32.88
2023-03-07T06:37:35.561Z,38.50
2023-03-07T06:38:35.413Z,41.00
2023-03-07T06:39:35.294Z,45.86
2023-03-07T06:40:35.159Z,45.48
2023-03-07T06:41:35.014Z,49.73
2023-03-07T06:42:34.881Z,49.92
2023-03-07T06:43:34.760Z,51.39
2023-03-07T06:44:34.622Z,52.49
2023-03-07T06:45:34.559Z,58.45
2023-03-07T06:46:34.375Z,73.99
2023-03-07T06:47:34.220Z,81.16
2023-03-07T06:48:34.087Z,92.44
2023-03-07T06:49:33.956Z,88.62
2023-03-07T06:50:35.688Z,91.00
2023-03-07T06:51:35.160Z,95.21
2023-03-07T06:52:33.573Z,105.08
2023-03-07T06:53:33.413Z,107.19
2023-03-07T06:54:33.292Z,114.46
2023-03-07T07:09:31.284Z,141.52
2023-03-07T07:10:31.129Z,140.12
2023-03-07T07:11:31.102Z,140.98
2023-03-07T07:12:30.866Z,143.13
2023-03-07T07:13:30.737Z,144.79
2023-03-07T07:14:30.596Z,143.50
2023-03-07T07:15:30.499Z,142.70
2023-03-07T07:17:30.276Z,144.00
2023-03-07T07:18:30.065Z,142.68
2023-03-07T07:19:29.916Z,137.96
2023-03-07T07:20:29.860Z,143.42
2023-03-07T07:21:29.648Z,138.28
2023-03-07T07:22:29.551Z,143.44
2023-03-07T07:23:29.575Z,142.76
2023-03-07T07:24:29.255Z,141.39
2023-03-07T07:25:29.127Z,140.81
2023-03-07T07:26:28.992Z,142.29
2023-03-07T07:27:28.856Z,138.37
2023-03-07T07:28:28.736Z,140.22
2023-03-07T07:29:28.601Z,138.57
2023-03-07T07:30:28.480Z,139.80
2023-03-07T07:31:28.392Z,139.75
2023-03-07T07:32:28.374Z,140.39
2023-03-07T07:33:28.169Z,139.77
2023-03-07T07:34:27.932Z,140.06
2023-03-07T07:35:27.805Z,138.77
2023-03-07T07:36:27.712Z,138.75
2023-03-07T07:37:27.564Z,137.27
2023-03-07T07:38:27.429Z,137.65
2023-03-07T07:39:27.327Z,138.17
2023-03-07T07:40:27.132Z,139.32
2023-03-07T07:41:27.026Z,138.32
2023-03-07T07:42:26.862Z,136.83
2023-03-07T07:43:26.797Z,137.51
2023-03-07T07:44:26.597Z,141.25
2023-03-07T07:45:26.501Z,147.95
2023-03-07T07:46:26.349Z,156.29
2023-03-07T07:47:26.217Z,167.78
2023-03-07T07:48:26.079Z,170.71
2023-03-07T07:49:25.957Z,173.94
2023-03-07T07:50:25.815Z,176.74
2023-03-07T07:51:25.681Z,181.94
2023-03-07T07:52:25.687Z,186.96
2023-03-07T07:53:25.420Z,189.15
2023-03-07T07:54:25.291Z,198.27
2023-03-07T07:55:25.178Z,199.56
2023-03-07T07:56:25.051Z,205.05
2023-03-07T07:57:24.931Z,207.94
2023-03-07T07:58:24.740Z,212.42
2023-03-07T07:59:24.613Z,218.69
2023-03-07T08:00:24.465Z,224.87
2023-03-07T08:01:24.338Z,234.52
2023-03-07T08:02:24.341Z,232.34
2023-03-07T08:03:24.145Z,244.52
2023-03-07T08:04:23.923Z,249.50
2023-03-07T08:05:23.860Z,249.48
2023-03-07T08:06:23.659Z,245.02
2023-03-07T08:07:23.597Z,247.61
2023-03-07T08:08:23.387Z,250.00
2023-03-07T08:09:23.262Z,247.95
2023-03-07T08:10:23.126Z,248.77
2023-03-07T08:11:22.992Z,248.86
2023-03-07T08:12:22.851Z,248.12
2023-03-07T08:13:22.713Z,249.43
2023-03-07T08:14:22.576Z,247.87
2023-03-07T08:15:22.465Z,249.12
2023-03-07T08:16:22.321Z,249.93
2023-03-07T08:17:22.206Z,245.66
2023-03-07T08:18:22.054Z,249.26
2023-03-07T08:19:21.902Z,248.63
2023-03-07T08:20:21.774Z,249.35
2023-03-07T08:21:21.648Z,248.42
2023-03-07T08:22:21.512Z,249.72
2023-03-07T08:23:21.360Z,249.46
2023-03-07T08:24:29.266Z,248.71
2023-03-07T08:25:21.105Z,248.83
2023-03-07T08:26:20.964Z,248.42
2023-03-07T08:27:20.824Z,248.74
2023-03-07T08:28:20.661Z,248.43
2023-03-07T08:29:20.516Z,247.05
2023-03-07T08:30:20.383Z,250.00
2023-03-07T08:31:20.331Z,246.97
2023-03-07T08:32:20.154Z,247.81
2023-03-07T08:33:19.951Z,246.86
2023-03-07T08:34:19.854Z,247.06
2023-03-07T08:35:19.781Z,247.45
2023-03-07T08:36:19.608Z,248.90
2023-03-07T08:37:19.403Z,252.07
2023-03-07T08:38:19.267Z,260.99
2023-03-07T08:39:19.271Z,250.00
2023-03-07T08:40:19.048Z,248.16
2023-03-07T08:41:18.846Z,250.00
2023-03-07T08:42:18.721Z,250.30
2023-03-07T08:43:18.549Z,249.62
2023-03-07T08:44:18.410Z,235.54
2023-03-07T08:45:18.271Z,220.08
2023-03-07T08:46:18.188Z,225.11
2023-03-07T08:47:18.916Z,221.63
2023-03-07T08:48:17.914Z,219.48
2023-03-07T08:49:17.722Z,215.54
2023-03-07T08:50:17.593Z,218.59
2023-03-07T08:51:17.462Z,217.70
2023-03-07T08:52:17.315Z,216.21
2023-03-07T08:53:17.168Z,216.33
2023-03-07T08:54:17.044Z,216.61
2023-03-07T08:55:16.869Z,216.57
2023-03-07T08:56:16.747Z,218.17
2023-03-07T08:57:16.653Z,216.45
2023-03-07T08:58:16.481Z,217.06
2023-03-07T08:59:16.345Z,217.36
2023-03-07T09:00:16.203Z,217.14
2023-03-07T09:01:16.064Z,219.94
2023-03-07T09:02:15.946Z,219.98
2023-03-07T09:03:15.787Z,220.44
2023-03-07T09:04:15.695Z,222.36
2023-03-07T09:05:15.482Z,225.84
2023-03-07T09:06:15.353Z,226.16
2023-03-07T09:07:15.222Z,226.01
2023-03-07T09:08:15.955Z,226.10
2023-03-07T09:09:14.917Z,226.98
2023-03-07T09:10:14.800Z,227.62
2023-03-07T09:11:14.655Z,227.73
2023-03-07T09:12:14.981Z,228.72
2023-03-07T09:13:14.381Z,229.88
2023-03-07T09:14:14.903Z,228.71
2023-03-07T09:15:14.109Z,230.49
2023-03-07T09:16:14.002Z,225.50
2023-03-07T09:17:13.841Z,225.72
2023-03-07T09:18:13.712Z,223.92
2023-03-07T09:19:13.577Z,219.15
2023-03-07T09:20:13.442Z,216.60
2023-03-07T09:21:13.299Z,210.08
2023-03-07T09:22:13.137Z,209.40
2023-03-07T09:23:13.008Z,206.50
2023-03-07T09:24:12.860Z,199.34
2023-03-07T09:25:12.738Z,197.63
2023-03-07T09:26:12.593Z,192.34
2023-03-07T09:27:12.452Z,193.52
2023-03-07T09:28:12.331Z,189.84
2023-03-07T09:29:12.192Z,189.21
2023-03-07T09:30:12.074Z,151.23
2023-03-07T09:31:11.949Z,163.87
2023-03-07T09:32:11.815Z,169.57
2023-03-07T09:33:11.614Z,174.32
2023-03-07T09:34:11.476Z,172.41
2023-03-07T09:35:11.329Z,172.28
2023-03-07T09:36:11.209Z,170.11
2023-03-07T09:37:11.057Z,144.95
2023-03-07T09:38:10.996Z,125.31
2023-03-07T09:39:10.789Z,117.99
2023-03-07T09:40:10.675Z,45.94
2023-03-07T09:41:10.531Z,5.37
2023-03-07T09:42:10.373Z,7.36
2023-03-07T09:43:10.240Z,42.33
2023-03-07T09:44:10.115Z,32.28
2023-03-07T09:45:09.977Z,58.53
2023-03-07T09:46:09.987Z,76.94
2023-03-07T09:47:09.696Z,88.08
2023-03-07T09:48:09.562Z,90.66
2023-03-07T09:49:09.436Z,98.09
2023-03-07T09:50:09.306Z,110.73
2023-03-07T09:51:11.911Z,120.50
2023-03-07T09:52:10.313Z,130.62
2023-03-07T09:53:08.889Z,130.80
2023-03-07T09:54:08.761Z,131.57
2023-03-07T09:55:08.620Z,131.32
2023-03-07T09:56:08.460Z,132.09
2023-03-07T09:57:08.314Z,130.97
2023-03-07T09:58:08.288Z,129.53
2023-03-07T09:59:21.763Z,128.72
2023-03-07T10:00:08.893Z,128.78
2023-03-07T10:01:07.760Z,128.86
2023-03-07T10:02:07.682Z,128.91
2023-03-07T10:03:07.515Z,124.01
2023-03-07T10:04:07.358Z,96.44
2023-03-07T10:05:07.255Z,103.37
2023-03-07T10:06:07.030Z,108.88
2023-03-07T10:07:06.898Z,112.60
2023-03-07T10:08:06.842Z,105.45
2023-03-07T10:09:06.672Z,117.35
2023-03-07T10:10:07.371Z,120.56
2023-03-07T10:11:06.321Z,122.36
2023-03-07T10:12:06.174Z,118.17
2023-03-07T10:13:06.054Z,122.59
2023-03-07T10:14:05.893Z,123.95
2023-03-07T10:15:05.751Z,120.97
2023-03-07T10:16:05.612Z,113.12
2023-03-07T10:17:05.496Z,109.36
2023-03-07T10:18:05.385Z,119.08
2023-03-07T10:19:05.189Z,120.67
2023-03-07T10:20:05.049Z,128.60
2023-03-07T10:21:04.922Z,132.94
2023-03-07T10:22:04.784Z,139.87
2023-03-07T10:23:04.642Z,137.87
2023-03-07T10:24:04.483Z,142.38
2023-03-07T10:25:04.353Z,142.45
2023-03-07T10:26:04.201Z,143.50
2023-03-07T10:27:04.065Z,144.66
2023-03-07T10:28:03.947Z,146.63
2023-03-07T10:29:03.783Z,148.42
2023-03-07T10:30:03.643Z,149.54
2023-03-07T10:31:03.498Z,152.24
2023-03-07T10:32:03.475Z,153.48
2023-03-07T10:33:03.221Z,156.08
2023-03-07T10:34:03.076Z,149.24
2023-03-07T10:35:02.934Z,149.88
2023-03-07T10:36:02.814Z,151.13
2023-03-07T10:37:08.947Z,151.68
2023-03-07T10:38:03.536Z,151.83
2023-03-07T10:39:02.397Z,148.67
2023-03-07T10:40:04.787Z,148.05
2023-03-07T10:41:02.105Z,142.93
2023-03-07T10:42:01.975Z,139.77
2023-03-07T10:43:01.858Z,144.54
2023-03-07T10:44:01.814Z,145.13
2023-03-07T10:45:01.595Z,139.50
2023-03-07T10:46:01.447Z,94.78
2023-03-07T10:47:01.344Z,109.89
2023-03-07T10:48:01.109Z,130.32
2023-03-07T10:49:01.085Z,140.17
2023-03-07T10:50:00.837Z,129.56
2023-03-07T10:51:00.699Z,132.29
2023-03-07T10:52:00.567Z,130.33
2023-03-07T10:53:00.454Z,117.98
2023-03-07T10:54:00.274Z,119.81
2023-03-07T10:55:00.154Z,105.33
2023-03-07T10:55:59.979Z,90.64
2023-03-07T10:56:59.848Z,104.02
2023-03-07T10:57:59.696Z,107.80
2023-03-07T10:58:59.563Z,106.42
2023-03-07T10:59:59.722Z,107.68
2023-03-07T11:00:59.377Z,106.62
2023-03-07T11:01:59.146Z,104.32
2023-03-07T11:02:59.030Z,107.58
2023-03-07T11:03:58.875Z,107.22
2023-03-07T11:04:58.782Z,107.63
2023-03-07T11:05:58.596Z,106.73
2023-03-07T11:06:58.463Z,107.75
2023-03-07T11:07:58.328Z,105.20
2023-03-07T11:08:58.200Z,107.64
2023-03-07T11:09:58.087Z,105.58
2023-03-07T11:10:57.907Z,106.00
2023-03-07T11:11:57.777Z,103.84
2023-03-07T11:12:57.604Z,106.20
2023-03-07T11:13:57.494Z,106.37
2023-03-07T11:14:57.321Z,105.10
2023-03-07T11:16:10.599Z,104.78
2023-03-07T11:16:57.047Z,107.69
2023-03-07T11:17:56.907Z,107.97
2023-03-07T11:18:56.849Z,110.13
2023-03-07T11:19:56.817Z,111.85
2023-03-07T11:21:57.578Z,78.96
2023-03-07T11:30:55.165Z,131.35
2023-03-07T11:34:54.538Z,129.64
2023-03-07T11:35:54.422Z,129.20
2023-03-07T11:36:54.266Z,129.40
2023-03-07T11:38:15.164Z,132.06
2023-03-07T11:38:53.985Z,132.44
2023-03-07T11:39:53.898Z,133.58
2023-03-07T11:40:53.721Z,135.58
2023-03-07T11:41:53.569Z,133.11
2023-03-07T11:42:53.442Z,137.57
2023-03-07T11:43:53.318Z,139.06
2023-03-07T12:50:44.224Z,125.06
2023-03-07T12:53:43.775Z,126.26
2023-03-07T12:54:43.632Z,126.37
2023-03-07T12:55:43.492Z,126.43
2023-03-07T12:56:43.351Z,126.37
2023-03-07T12:57:43.205Z,126.69
2023-03-07T13:39:37.441Z,119.27
2023-03-07T13:40:37.261Z,119.43
2023-03-07T13:41:37.125Z,118.78
2023-03-07T13:42:36.986Z,117.85
2023-03-07T13:43:37.486Z,118.70
2023-03-07T13:44:36.686Z,118.30
2023-03-07T13:45:36.547Z,116.46
2023-03-07T13:46:36.420Z,117.07
2023-03-07T13:47:36.249Z,116.65
2023-03-07T13:48:36.114Z,116.02
2023-03-07T13:49:36.016Z,116.09
2023-03-07T13:50:35.847Z,116.30
2023-03-07T13:51:35.708Z,116.08
2023-03-07T13:52:35.566Z,114.60
2023-03-07T13:53:35.434Z,115.09
2023-03-07T13:54:35.365Z,116.91
2023-03-07T13:55:35.138Z,115.43
2023-03-07T13:56:35.071Z,115.99
2023-03-07T13:57:34.883Z,116.63
2023-03-07T13:58:34.737Z,116.40
2023-03-07T13:59:34.665Z,117.30
2023-03-07T14:00:34.427Z,117.29
2023-03-07T14:01:34.346Z,117.65
2023-03-07T14:02:34.161Z,117.52
2023-03-07T14:03:34.053Z,117.33
2023-03-07T14:04:40.340Z,117.85
2023-03-07T14:05:34.776Z,117.97
2023-03-07T14:06:33.632Z,118.19
2023-03-07T14:07:33.445Z,118.49
2023-03-07T14:08:33.310Z,117.81
2023-03-07T14:09:33.192Z,119.67
2023-03-07T15:21:23.315Z,113.91
2023-03-07T15:38:21.034Z,109.75
2023-03-07T15:39:20.847Z,108.24
2023-03-07T15:40:20.717Z,110.04
2023-03-07T15:41:20.596Z,109.07
2023-03-07T15:42:20.439Z,108.09
2023-03-07T15:43:20.305Z,110.17
2023-03-07T15:44:20.198Z,106.41
2023-03-07T15:45:20.041Z,111.39
2023-03-07T15:46:19.901Z,109.64
2023-03-07T15:47:19.794Z,110.86
2023-03-07T15:48:19.633Z,110.97
2023-03-07T15:49:19.481Z,109.10
2023-03-07T15:50:19.338Z,106.19
2023-03-07T15:51:19.210Z,108.61
2023-03-07T15:52:19.062Z,109.37
2023-03-07T15:53:18.968Z,107.51
2023-03-07T15:54:18.797Z,103.04
2023-03-07T15:55:18.672Z,102.20
2023-03-07T15:56:18.501Z,103.57
2023-03-07T15:57:18.393Z,104.16
2023-03-07T15:58:18.258Z,105.52
2023-03-07T15:59:18.127Z,105.64
2023-03-07T16:00:17.996Z,105.77
2023-03-07T16:01:17.831Z,107.86
2023-03-07T16:02:17.688Z,108.32
2023-03-07T16:03:17.668Z,106.64
2023-03-07T16:04:17.427Z,106.85
2023-03-07T16:05:17.313Z,106.06
2023-03-07T16:06:17.212Z,107.85
2023-03-07T16:07:17.018Z,109.06
2023-03-07T16:08:16.909Z,107.21
2023-03-07T16:09:16.746Z,108.56
2023-03-07T16:10:16.614Z,108.70
2023-03-07T16:11:16.481Z,108.78
2023-03-07T16:12:16.348Z,106.98
2023-03-07T16:13:16.223Z,107.51
2023-03-07T16:14:16.057Z,108.95
2023-03-07T16:15:15.937Z,106.68
2023-03-07T16:16:15.833Z,110.40
2023-03-07T16:17:15.636Z,109.97
2023-03-07T16:18:15.546Z,109.22
2023-03-07T16:19:15.368Z,108.91
2023-03-07T16:20:15.249Z,108.15
2023-03-07T16:21:15.097Z,109.76
2023-03-07T16:22:14.971Z,108.55
2023-03-07T16:23:14.826Z,109.17
2023-03-07T16:24:14.700Z,109.26
2023-03-07T16:25:14.554Z,110.87
2023-03-07T16:26:14.415Z,110.34
2023-03-07T16:27:14.277Z,110.62
2023-03-07T16:28:14.140Z,109.96
2023-03-07T16:29:14.006Z,108.24
2023-03-07T16:30:13.898Z,108.68
2023-03-07T16:31:13.783Z,109.20
2023-03-07T16:32:13.633Z,108.67
2023-03-07T16:33:13.462Z,110.52
2023-03-07T16:34:13.312Z,111.38
2023-03-07T16:35:13.183Z,109.99
2023-03-07T16:54:10.608Z,110.58
2023-03-07T17:07:08.838Z,108.94
2023-03-07T17:08:08.709Z,109.78
2023-03-07T17:09:08.573Z,110.59
2023-03-07T17:10:08.443Z,106.84
2023-03-07T17:11:08.304Z,110.88
2023-03-07T17:12:08.169Z,108.96
2023-03-07T17:13:08.031Z,109.52
2023-03-07T17:14:07.897Z,108.62
2023-03-07T17:15:07.759Z,109.61
2023-03-07T17:16:07.646Z,108.12
2023-03-07T17:17:07.493Z,110.85
2023-03-07T17:18:07.368Z,108.09
2023-03-07T17:19:07.192Z,107.82
2023-03-07T17:20:07.054Z,109.70
2023-03-07T17:21:06.928Z,109.58
2023-03-07T17:22:06.786Z,111.02
2023-03-07T17:23:06.655Z,108.99
2023-03-07T17:24:06.518Z,110.15
2023-03-07T17:25:06.378Z,108.44
2023-03-07T17:26:06.227Z,110.23
2023-03-07T17:27:06.080Z,110.60
2023-03-07T17:28:05.989Z,110.97
2023-03-07T17:29:05.846Z,110.18
2023-03-07T17:30:05.681Z,111.97
2023-03-07T17:31:05.588Z,110.67
2023-03-07T17:32:05.450Z,109.78
2023-03-07T17:33:05.276Z,112.54
2023-03-07T17:34:05.136Z,111.04
2023-03-07T17:35:04.990Z,111.17
2023-03-07T17:36:04.922Z,111.34
2023-03-07T17:37:04.726Z,111.83
2023-03-07T17:38:04.592Z,111.70
2023-03-07T17:39:04.461Z,113.17
2023-03-07T17:40:04.306Z,112.28
2023-03-07T17:41:05.060Z,115.20
2023-03-07T17:42:04.117Z,114.25
2023-03-07T17:43:03.935Z,112.76
2023-03-07T17:44:03.764Z,112.57
2023-03-07T17:45:03.627Z,112.77
2023-03-07T17:46:03.521Z,112.20
2023-03-07T17:47:03.359Z,112.95
2023-03-07T17:48:03.221Z,110.11
2023-03-07T18:11:00.114Z,112.09
2023-03-07T18:12:59.822Z,107.95
2023-03-07T18:13:59.692Z,109.27
2023-03-07T18:14:59.556Z,106.32
2023-03-07T18:15:59.415Z,105.01
2023-03-07T18:16:59.280Z,106.00
2023-03-07T18:17:59.183Z,105.77
2023-03-07T18:19:01.776Z,104.60
2023-03-07T18:19:58.978Z,104.65
2023-03-07T18:20:58.756Z,103.90
2023-03-07T18:21:58.614Z,102.96
2023-03-07T18:22:58.479Z,102.20
2023-03-07T18:23:58.327Z,103.17
2023-03-07T18:24:58.197Z,103.53
2023-03-07T18:25:58.053Z,102.20
2023-03-07T18:26:57.908Z,105.16
2023-03-07T18:27:57.772Z,102.69
2023-03-07T18:28:57.635Z,104.61
2023-03-07T18:29:57.504Z,100.98
2023-03-07T18:30:57.374Z,99.42
2023-03-07T18:31:57.231Z,101.84
2023-03-07T18:32:57.154Z,100.81
2023-03-07T18:33:56.948Z,97.50
2023-03-07T18:34:56.823Z,101.09
2023-03-07T18:35:56.733Z,97.81
2023-03-07T18:36:56.544Z,93.59
2023-03-07T18:37:56.408Z,99.00
2023-03-07T18:38:56.344Z,97.75
2023-03-07T18:39:56.200Z,96.06
2023-03-07T18:40:55.997Z,98.03
2023-03-07T18:41:55.886Z,95.53
2023-03-07T18:42:55.771Z,98.71
2023-03-07T18:43:55.589Z,96.07
2023-03-07T18:44:55.445Z,97.68
2023-03-07T18:45:55.299Z,97.38
2023-03-07T18:46:55.246Z,98.91
2023-03-07T18:47:55.030Z,99.50
2023-03-07T18:48:54.986Z,96.54
2023-03-07T18:49:54.819Z,97.63
2023-03-07T18:50:54.592Z,98.99
2023-03-07T18:51:54.484Z,97.43
2023-03-07T18:52:54.357Z,97.94
2023-03-07T18:53:54.208Z,98.08
2023-03-07T18:54:54.061Z,98.41
2023-03-07T18:55:53.928Z,97.89
2023-03-07T18:56:53.787Z,97.94
2023-03-07T18:57:53.705Z,96.93
2023-03-07T18:58:53.507Z,99.25
2023-03-07T18:59:53.379Z,97.37
2023-03-07T19:00:53.311Z,97.69
2023-03-07T19:01:53.179Z,95.28
2023-03-07T19:02:52.998Z,97.42
2023-03-07T19:03:52.833Z,96.31
2023-03-07T19:04:52.702Z,100.74
2023-03-07T19:05:52.568Z,94.51
2023-03-07T19:06:52.430Z,94.33
2023-03-07T19:07:52.311Z,97.29
2023-03-07T19:08:52.165Z,97.50
2023-03-07T19:09:52.034Z,97.64
2023-03-07T19:10:51.908Z,97.93
2023-03-07T19:11:51.762Z,98.14
2023-03-07T19:12:51.622Z,99.41
2023-03-07T19:13:51.491Z,101.44
2023-03-07T19:14:51.374Z,100.57
2023-03-07T19:15:51.220Z,101.51
2023-03-07T19:16:51.151Z,99.15
2023-03-07T19:17:50.932Z,99.17
2023-03-07T19:18:50.794Z,101.28
2023-03-07T19:19:50.659Z,101.33
2023-03-07T19:20:50.517Z,101.39
2023-03-07T19:21:50.375Z,100.55
2023-03-07T19:22:50.276Z,98.36
2023-03-07T19:23:50.160Z,98.19
2023-03-07T19:24:49.975Z,98.67
2023-03-07T19:25:49.844Z,96.78
2023-03-07T19:26:49.713Z,97.98
2023-03-07T19:27:49.567Z,98.40
2023-03-07T19:28:49.430Z,97.47
2023-03-07T19:29:49.364Z,96.17
2023-03-07T19:30:49.165Z,99.72
2023-03-07T19:31:49.094Z,96.85
2023-03-07T19:32:48.908Z,96.91
2023-03-07T19:33:48.800Z,96.67
2023-03-07T19:34:48.644Z,100.11
2023-03-07T19:35:48.513Z,100.26
2023-03-07T19:36:48.328Z,98.93
2023-03-07T19:37:48.189Z,98.83
2023-03-07T19:38:48.053Z,99.02
2023-03-07T19:39:47.915Z,99.32